createdAt,value
2022-11-30T00:01:12.164Z,9.90
2022-11-30T00:03:39.736Z,13.40
2022-11-30T00:06:08.991Z,9.90
2022-11-30T00:08:37.039Z,9.67
2022-11-30T00:11:09.775Z,10.80
2022-11-30T00:13:38.872Z,11.90
2022-11-30T00:16:07.091Z,10.50
2022-11-30T00:18:34.714Z,11.37
2022-11-30T00:21:02.929Z,11.20
2022-11-30T00:23:33.872Z,11.80
2022-11-30T00:26:03.441Z,11.13
2022-11-30T00:28:32.836Z,13.27
2022-11-30T00:31:03.516Z,11.77
2022-11-30T00:33:33.979Z,10.77
2022-11-30T00:36:04.414Z,10.03
2022-11-30T00:38:32.867Z,10.50
2022-11-30T00:41:00.518Z,9.90
2022-11-30T00:43:28.523Z,11.50
2022-11-30T00:45:56.176Z,9.60
2022-11-30T00:48:25.325Z,11.67
2022-11-30T00:50:52.968Z,12.60
2022-11-30T00:53:21.664Z,11.03
2022-11-30T00:55:49.882Z,9.60
2022-11-30T00:58:17.906Z,10.23
2022-11-30T01:00:45.744Z,11.97
2022-11-30T01:03:13.791Z,9.47
2022-11-30T01:05:43.950Z,12.07
2022-11-30T01:08:13.474Z,11.63
2022-11-30T01:10:43.183Z,10.53
2022-11-30T01:13:12.691Z,12.80
2022-11-30T01:15:42.856Z,12.00
2022-11-30T01:18:10.621Z,11.60
2022-11-30T01:20:42.484Z,16.67
2022-11-30T01:23:10.347Z,13.13
2022-11-30T01:25:38.119Z,16.93
2022-11-30T01:28:05.964Z,13.67
2022-11-30T01:30:33.559Z,14.97
2022-11-30T01:33:03.456Z,13.80
2022-11-30T01:35:31.181Z,13.37
2022-11-30T01:38:00.092Z,14.47
2022-11-30T01:40:27.603Z,14.10
2022-11-30T01:42:55.306Z,15.00
2022-11-30T01:45:22.910Z,13.20
2022-11-30T01:47:54.747Z,12.30
2022-11-30T01:50:24.946Z,13.77
2022-11-30T01:52:56.330Z,12.07
2022-11-30T01:55:30.496Z,10.50
2022-11-30T01:58:02.794Z,13.90
2022-11-30T02:00:30.426Z,12.93
2022-11-30T02:03:03.402Z,12.43
2022-11-30T02:05:32.353Z,11.03
2022-11-30T02:08:00.113Z,10.90
2022-11-30T02:10:32.748Z,10.93
2022-11-30T02:13:28.569Z,12.57
2022-11-30T02:16:04.388Z,11.50
2022-11-30T02:18:39.632Z,13.63
2022-11-30T02:21:14.777Z,11.50
2022-11-30T02:24:07.993Z,11.00
2022-11-30T02:26:56.296Z,11.20
2022-11-30T02:29:29.662Z,11.17
2022-11-30T02:32:06.023Z,14.63
2022-11-30T02:34:37.889Z,13.43
2022-11-30T02:37:09.597Z,12.73
2022-11-30T02:39:37.193Z,12.30
2022-11-30T02:42:04.739Z,12.00
2022-11-30T02:44:33.659Z,12.43
2022-11-30T02:47:13.306Z,12.00
2022-11-30T02:49:48.862Z,12.50
2022-11-30T02:52:17.286Z,13.27
2022-11-30T02:54:45.126Z,11.90
2022-11-30T02:57:13.556Z,13.23
2022-11-30T02:59:42.521Z,12.07
2022-11-30T03:02:10.021Z,11.70
2022-11-30T03:04:37.500Z,12.23
2022-11-30T03:07:05.026Z,9.97
2022-11-30T03:09:32.540Z,10.90
2022-11-30T03:12:00.035Z,12.53
2022-11-30T03:14:27.656Z,12.53
2022-11-30T03:16:56.522Z,11.97
2022-11-30T03:19:24.031Z,12.17
2022-11-30T03:21:51.695Z,11.47
2022-11-30T03:24:19.235Z,11.50
2022-11-30T03:26:46.903Z,12.40
2022-11-30T03:29:14.424Z,12.70
2022-11-30T03:31:41.974Z,12.33
2022-11-30T03:34:11.017Z,13.63
2022-11-30T03:36:38.537Z,12.33
2022-11-30T03:39:06.637Z,13.97
2022-11-30T03:41:34.183Z,11.77
2022-11-30T03:44:01.848Z,12.50
2022-11-30T03:46:29.412Z,13.00
2022-11-30T03:48:56.928Z,12.97
2022-11-30T03:51:25.765Z,13.83
2022-11-30T03:53:53.294Z,11.63
2022-11-30T03:56:21.161Z,11.70
2022-11-30T03:58:48.666Z,14.97
2022-11-30T04:01:19.098Z,15.93
2022-11-30T04:03:46.599Z,13.73
2022-11-30T04:06:14.553Z,12.60
2022-11-30T04:08:43.481Z,12.40
2022-11-30T04:11:11.419Z,11.57
2022-11-30T04:13:40.497Z,15.20
2022-11-30T04:16:08.819Z,11.93
2022-11-30T04:18:37.908Z,12.23
2022-11-30T04:21:07.225Z,11.00
2022-11-30T04:23:36.622Z,12.00
2022-11-30T04:26:06.495Z,11.30
2022-11-30T04:28:34.343Z,12.40
2022-11-30T04:31:02.601Z,13.27
2022-11-30T04:33:30.716Z,13.80
2022-11-30T04:36:00.259Z,12.80
2022-11-30T04:38:28.545Z,13.33
2022-11-30T04:40:56.632Z,13.57
2022-11-30T04:43:26.171Z,11.90
2022-11-30T04:45:53.649Z,12.77
2022-11-30T04:48:21.130Z,11.33
2022-11-30T04:50:48.647Z,11.90
2022-11-30T04:53:16.316Z,11.53
2022-11-30T04:55:43.780Z,12.93
2022-11-30T04:58:11.289Z,12.53
2022-11-30T05:00:40.159Z,12.17
2022-11-30T05:03:07.641Z,11.17
2022-11-30T05:05:35.119Z,11.47
2022-11-30T05:08:02.901Z,12.13
2022-11-30T05:10:33.637Z,11.73
2022-11-30T05:13:01.108Z,14.87
2022-11-30T05:15:28.630Z,11.33
2022-11-30T05:18:01.024Z,13.80
2022-11-30T05:20:29.248Z,12.70
2022-11-30T05:22:56.754Z,14.00
2022-11-30T05:25:24.259Z,12.27
2022-11-30T05:27:51.716Z,12.23
2022-11-30T05:30:19.422Z,13.00
2022-11-30T05:32:46.997Z,12.47
2022-11-30T05:35:15.972Z,10.03
2022-11-30T05:37:43.432Z,12.57
2022-11-30T05:40:11.642Z,12.30
2022-11-30T05:42:39.243Z,11.67
2022-11-30T05:45:07.522Z,10.37
2022-11-30T05:47:35.091Z,9.60
2022-11-30T05:50:02.615Z,12.03
2022-11-30T05:52:31.519Z,11.07
2022-11-30T05:54:59.357Z,10.63
2022-11-30T05:57:26.846Z,10.83
2022-11-30T05:59:54.382Z,12.47
2022-11-30T06:02:27.761Z,11.33
2022-11-30T06:04:55.705Z,12.83
2022-11-30T06:07:23.258Z,11.90
2022-11-30T06:09:52.232Z,12.00
2022-11-30T06:12:19.742Z,12.53
2022-11-30T06:14:47.665Z,13.20
2022-11-30T06:17:15.309Z,11.50
2022-11-30T06:19:42.917Z,12.53
2022-11-30T06:22:10.446Z,11.57
2022-11-30T06:24:37.974Z,12.70
2022-11-30T06:27:06.819Z,11.47
2022-11-30T06:29:34.354Z,9.97
2022-11-30T06:32:01.885Z,11.10
2022-11-30T06:34:31.610Z,10.80
2022-11-30T06:36:59.194Z,11.90
2022-11-30T06:39:49.925Z,12.83
2022-11-30T06:42:15.530Z,12.43
2022-11-30T06:44:43.024Z,13.63
2022-11-30T06:47:10.793Z,11.63
2022-11-30T06:49:39.449Z,11.20
2022-11-30T06:52:06.936Z,10.40
2022-11-30T06:54:34.399Z,12.43
2022-11-30T06:57:01.888Z,12.03
2022-11-30T06:59:30.725Z,11.47
2022-11-30T07:02:01.602Z,11.00
2022-11-30T07:04:31.827Z,11.30
2022-11-30T07:06:59.384Z,11.47
2022-11-30T07:09:26.857Z,11.77
2022-11-30T07:11:54.345Z,11.00
2022-11-30T07:14:22.110Z,14.20
2022-11-30T07:16:51.041Z,12.27
2022-11-30T07:19:18.645Z,10.50
2022-11-30T07:21:46.195Z,12.53
2022-11-30T07:24:39.872Z,11.97
2022-11-30T07:27:07.386Z,11.93
2022-11-30T07:29:34.889Z,15.53
2022-11-30T07:32:03.859Z,12.53
2022-11-30T07:34:31.390Z,13.27
2022-11-30T07:36:58.889Z,13.77
2022-11-30T07:39:26.450Z,14.83
2022-11-30T07:41:53.954Z,13.67
2022-11-30T07:44:21.551Z,14.73
2022-11-30T07:46:49.062Z,13.77
2022-11-30T07:49:17.959Z,11.63
2022-11-30T07:51:45.559Z,12.20
2022-11-30T07:54:13.133Z,11.40
2022-11-30T07:56:40.647Z,12.10
2022-11-30T07:59:08.201Z,11.80
2022-11-30T08:01:36.077Z,10.97
2022-11-30T08:04:03.874Z,11.93
2022-11-30T08:06:33.259Z,12.20
2022-11-30T08:09:02.959Z,12.13
2022-11-30T08:11:33.122Z,9.70
2022-11-30T08:14:00.829Z,10.47
2022-11-30T08:16:30.025Z,10.40
2022-11-30T08:18:58.437Z,9.77
2022-11-30T08:21:26.048Z,10.63
2022-11-30T08:23:57.062Z,11.13
2022-11-30T08:26:26.929Z,10.40
2022-11-30T08:28:55.279Z,11.40
2022-11-30T08:31:25.292Z,10.63
2022-11-30T08:33:56.087Z,10.73
2022-11-30T08:36:25.353Z,10.50
2022-11-30T08:38:53.230Z,11.90
2022-11-30T08:41:23.501Z,11.17
2022-11-30T08:43:51.687Z,12.30
2022-11-30T08:46:50.396Z,11.57
2022-11-30T08:49:25.247Z,12.03
2022-11-30T08:54:45.108Z,12.77
2022-11-30T08:57:15.899Z,12.37
2022-11-30T08:59:43.413Z,14.70
2022-11-30T09:02:11.485Z,12.30
2022-11-30T09:04:39.082Z,15.33
2022-11-30T09:07:06.632Z,15.63
2022-11-30T09:09:34.101Z,13.47
2022-11-30T09:12:01.705Z,11.97
2022-11-30T09:14:30.603Z,12.70
2022-11-30T09:16:58.190Z,14.20
2022-11-30T09:19:26.294Z,12.90
2022-11-30T09:21:53.896Z,11.87
2022-11-30T09:24:21.637Z,11.03
2022-11-30T09:26:49.213Z,11.07
2022-11-30T09:29:16.933Z,11.47
2022-11-30T09:31:45.764Z,12.63
2022-11-30T09:34:13.453Z,11.43
2022-11-30T09:36:41.395Z,14.57
2022-11-30T09:39:11.010Z,13.50
2022-11-30T09:42:07.262Z,13.23
2022-11-30T09:44:44.232Z,12.20
2022-11-30T09:47:31.844Z,11.47
2022-11-30T09:50:04.064Z,11.53
2022-11-30T09:52:35.978Z,11.87
2022-11-30T09:55:08.492Z,16.07
2022-11-30T09:57:44.445Z,14.77
2022-11-30T10:00:15.735Z,16.50
2022-11-30T10:02:45.014Z,15.77
2022-11-30T10:05:17.610Z,17.07
2022-11-30T10:08:00.609Z,18.33
2022-11-30T10:10:37.118Z,19.57
2022-11-30T10:13:23.216Z,15.30
2022-11-30T10:16:05.366Z,14.97
2022-11-30T10:18:45.533Z,12.47
2022-11-30T10:21:23.132Z,15.80
2022-11-30T10:24:06.841Z,15.77
2022-11-30T10:26:37.981Z,14.43
2022-11-30T10:29:15.584Z,13.97
2022-11-30T10:31:44.287Z,16.90
2022-11-30T10:34:20.477Z,14.37
2022-11-30T10:36:53.598Z,15.87
2022-11-30T10:39:26.345Z,15.00
2022-11-30T10:41:57.831Z,11.80
2022-11-30T10:44:28.759Z,12.97
2022-11-30T10:47:02.550Z,12.67
2022-11-30T10:49:32.901Z,14.07
2022-11-30T10:52:03.624Z,12.37
2022-11-30T10:54:32.380Z,12.47
2022-11-30T10:57:01.929Z,11.43
2022-11-30T10:59:39.724Z,11.60
2022-11-30T11:02:35.535Z,11.43
2022-11-30T11:05:24.364Z,11.83
2022-11-30T11:07:59.840Z,9.77
2022-11-30T11:10:34.416Z,12.10
2022-11-30T11:13:02.319Z,11.43
2022-11-30T11:15:32.827Z,12.97
2022-11-30T11:18:23.699Z,13.33
2022-11-30T11:21:05.968Z,13.20
2022-11-30T11:23:37.138Z,12.37
2022-11-30T11:26:05.705Z,12.83
2022-11-30T11:28:35.244Z,13.87
2022-11-30T11:31:17.407Z,12.37
2022-11-30T11:33:52.441Z,12.93
2022-11-30T11:36:26.760Z,11.33
2022-11-30T11:38:54.470Z,12.70
2022-11-30T11:41:26.747Z,13.07
2022-11-30T11:44:02.444Z,12.77
2022-11-30T11:46:31.863Z,11.93
2022-11-30T11:49:02.582Z,12.07
2022-11-30T11:51:33.248Z,12.27
2022-11-30T11:54:05.926Z,13.47
2022-11-30T11:56:35.521Z,14.30
2022-11-30T11:59:12.094Z,12.60
2022-11-30T12:01:50.923Z,13.63
2022-11-30T12:04:46.794Z,11.37
2022-11-30T12:07:39.439Z,11.87
2022-11-30T12:13:17.423Z,12.57
2022-11-30T12:16:04.257Z,11.17
2022-11-30T12:18:42.207Z,10.83
2022-11-30T12:21:15.113Z,11.13
2022-11-30T12:23:58.463Z,10.83
2022-11-30T12:26:35.309Z,11.57
2022-11-30T12:29:23.036Z,10.73
2022-11-30T12:32:17.589Z,11.00
2022-11-30T12:34:54.529Z,10.17
2022-11-30T12:37:32.954Z,10.53
2022-11-30T12:40:10.726Z,10.53
2022-11-30T12:42:47.435Z,9.60
2022-11-30T12:45:20.238Z,9.30
2022-11-30T12:47:59.421Z,9.77
2022-11-30T12:50:43.242Z,9.33
2022-11-30T12:53:19.867Z,7.83
2022-11-30T12:55:59.465Z,7.90
2022-11-30T12:58:35.997Z,8.57
2022-11-30T13:01:16.966Z,9.90
2022-11-30T13:03:52.829Z,8.40
2022-11-30T13:06:25.565Z,8.40
2022-11-30T13:08:59.811Z,8.97
2022-11-30T13:11:34.927Z,8.57
2022-11-30T13:14:03.358Z,7.63
2022-11-30T13:16:33.421Z,8.10
2022-11-30T13:19:14.831Z,8.67
2022-11-30T13:21:49.693Z,9.60
2022-11-30T13:24:24.030Z,10.37
2022-11-30T13:26:59.964Z,7.63
2022-11-30T13:29:50.308Z,7.63
2022-11-30T13:32:55.283Z,7.80
2022-11-30T13:35:42.052Z,8.80
2022-11-30T13:41:09.295Z,9.00
2022-11-30T13:43:44.813Z,8.10
2022-11-30T13:46:19.582Z,8.90
2022-11-30T13:48:47.591Z,8.83
2022-11-30T13:51:35.921Z,8.43
2022-11-30T13:54:36.949Z,9.23
2022-11-30T13:57:04.579Z,9.97
2022-11-30T13:59:40.972Z,9.67
2022-11-30T14:02:53.601Z,9.30
2022-11-30T14:05:24.434Z,9.13
2022-11-30T14:08:17.444Z,8.97
2022-11-30T14:10:46.726Z,8.60
2022-11-30T14:13:32.245Z,10.17
2022-11-30T14:16:02.730Z,8.53
2022-11-30T14:18:42.793Z,13.07
2022-11-30T14:21:25.360Z,12.97
2022-11-30T14:23:58.648Z,10.70
2022-11-30T14:26:31.147Z,10.43
2022-11-30T14:29:04.112Z,8.67
2022-11-30T14:31:37.522Z,9.80
2022-11-30T14:34:12.479Z,9.33
2022-11-30T14:36:47.252Z,8.80
2022-11-30T14:39:26.485Z,9.80
2022-11-30T14:41:54.493Z,11.40
2022-11-30T14:44:22.274Z,10.03
2022-11-30T14:46:51.208Z,13.07
2022-11-30T14:49:21.803Z,11.10
2022-11-30T14:51:51.817Z,12.30
2022-11-30T14:54:31.748Z,11.37
2022-11-30T14:57:03.971Z,10.30
2022-11-30T14:59:44.859Z,11.67
2022-11-30T15:02:21.143Z,11.70
2022-11-30T15:04:50.382Z,10.47
2022-11-30T15:07:18.164Z,9.43
2022-11-30T15:09:48.759Z,9.40
2022-11-30T15:12:20.195Z,9.87
2022-11-30T15:15:18.698Z,9.13
2022-11-30T15:17:52.457Z,8.70
2022-11-30T15:20:26.242Z,8.43
2022-11-30T15:22:55.604Z,8.90
2022-11-30T15:25:26.560Z,8.33
2022-11-30T15:27:54.205Z,8.40
2022-11-30T15:30:21.980Z,8.90
2022-11-30T15:32:53.294Z,9.70
2022-11-30T15:35:23.600Z,8.73
2022-11-30T15:37:51.843Z,8.60
2022-11-30T15:40:31.465Z,8.00
2022-11-30T15:43:00.046Z,8.47
2022-11-30T15:45:29.781Z,9.30
2022-11-30T15:48:00.417Z,8.30
2022-11-30T15:50:40.788Z,9.20
2022-11-30T15:53:26.876Z,8.13
2022-11-30T15:55:55.373Z,8.17
2022-11-30T15:58:39.840Z,8.03
2022-11-30T16:01:11.008Z,7.70
2022-11-30T16:04:02.753Z,7.93
2022-11-30T16:06:33.142Z,7.20
2022-11-30T16:09:16.920Z,8.60
2022-11-30T16:11:44.429Z,7.60
2022-11-30T16:14:16.481Z,6.60
2022-11-30T16:16:44.743Z,6.87
2022-11-30T16:19:13.589Z,5.60
2022-11-30T16:21:41.468Z,6.67
2022-11-30T16:24:11.583Z,5.90
2022-11-30T16:26:54.335Z,5.37
2022-11-30T16:29:21.857Z,5.60
2022-11-30T16:31:49.756Z,4.90
2022-11-30T16:34:18.638Z,5.77
2022-11-30T16:36:46.185Z,5.03
2022-11-30T16:39:13.856Z,4.67
2022-11-30T16:41:41.610Z,5.03
2022-11-30T16:44:14.178Z,4.97
2022-11-30T16:46:41.846Z,4.73
2022-11-30T16:49:09.339Z,4.87
2022-11-30T16:51:38.353Z,4.77
2022-11-30T16:54:05.957Z,4.87
2022-11-30T16:56:33.573Z,4.33
2022-11-30T16:59:01.158Z,4.70
2022-11-30T17:01:35.986Z,4.90
2022-11-30T17:04:10.354Z,4.47
2022-11-30T17:06:39.389Z,4.87
2022-11-30T17:09:07.150Z,4.80
2022-11-30T17:11:38.374Z,4.77
2022-11-30T17:14:06.535Z,4.30
2022-11-30T17:16:34.254Z,5.17
2022-11-30T17:19:01.779Z,5.23
2022-11-30T17:21:31.327Z,4.57
2022-11-30T17:24:00.370Z,4.57
2022-11-30T17:26:28.331Z,5.30
2022-11-30T17:28:55.936Z,5.37
2022-11-30T17:31:23.955Z,5.07
2022-11-30T17:33:51.474Z,4.73
2022-11-30T17:36:19.836Z,5.33
2022-11-30T17:38:47.342Z,4.90
2022-11-30T17:41:19.753Z,4.73
2022-11-30T17:43:48.306Z,4.93
2022-11-30T17:46:17.925Z,4.90
2022-11-30T17:48:45.974Z,5.20
2022-11-30T17:51:13.867Z,5.03
2022-11-30T17:53:42.761Z,5.37
2022-11-30T17:56:12.696Z,5.00
2022-11-30T17:58:44.011Z,4.70
2022-11-30T18:01:17.128Z,5.37
2022-11-30T18:03:44.749Z,5.17
2022-11-30T18:06:12.815Z,5.37
2022-11-30T18:08:40.355Z,5.37
2022-11-30T18:11:11.929Z,5.60
2022-11-30T18:13:41.133Z,4.97
2022-11-30T18:16:10.554Z,5.07
2022-11-30T18:18:42.845Z,5.40
2022-11-30T18:21:15.468Z,5.23
2022-11-30T18:23:43.019Z,5.03
2022-11-30T18:26:14.349Z,5.17
2022-11-30T18:28:43.580Z,5.03
2022-11-30T18:31:11.203Z,5.00
2022-11-30T18:33:39.960Z,5.03
2022-11-30T18:36:08.058Z,5.33
2022-11-30T18:38:38.566Z,5.53
2022-11-30T18:41:07.182Z,5.00
2022-11-30T18:43:35.138Z,5.17
2022-11-30T18:46:04.926Z,5.27
2022-11-30T18:48:32.484Z,4.53
2022-11-30T18:50:59.984Z,4.70
2022-11-30T18:53:27.499Z,4.97
2022-11-30T18:55:54.990Z,6.63
2022-11-30T18:58:22.539Z,5.53
2022-11-30T19:00:50.073Z,6.00
2022-11-30T19:03:18.876Z,6.33
2022-11-30T19:05:46.361Z,6.33
2022-11-30T19:08:15.446Z,6.50
2022-11-30T19:10:42.954Z,6.67
2022-11-30T19:13:10.648Z,6.57
2022-11-30T19:15:39.628Z,7.07
2022-11-30T19:18:07.828Z,7.50
2022-11-30T19:20:39.993Z,6.93
2022-11-30T19:23:07.824Z,7.13
2022-11-30T19:25:35.399Z,6.90
2022-11-30T19:28:02.866Z,6.50
2022-11-30T19:30:30.792Z,6.10
2022-11-30T19:32:58.559Z,6.93
2022-11-30T19:35:26.090Z,7.03
2022-11-30T19:37:54.997Z,7.67
2022-11-30T19:40:22.500Z,9.30
2022-11-30T19:42:50.103Z,8.13
2022-11-30T19:45:18.092Z,7.40
2022-11-30T19:47:45.555Z,6.80
2022-11-30T19:50:13.124Z,6.37
2022-11-30T19:52:40.637Z,5.53
2022-11-30T19:55:10.474Z,5.97
2022-11-30T19:57:37.985Z,6.10
2022-11-30T20:00:06.940Z,7.03
2022-11-30T20:02:34.886Z,5.40
2022-11-30T20:05:02.526Z,6.00
2022-11-30T20:07:30.086Z,5.37
2022-11-30T20:09:57.651Z,5.90
2022-11-30T20:12:26.581Z,6.47
2022-11-30T20:14:54.775Z,6.87
2022-11-30T20:17:22.283Z,7.30
2022-11-30T20:19:49.872Z,7.70
2022-11-30T20:22:17.522Z,7.53
2022-11-30T20:24:45.191Z,6.97
2022-11-30T20:27:12.885Z,7.30
2022-11-30T20:29:41.709Z,6.17
2022-11-30T20:32:09.231Z,6.87
2022-11-30T20:34:42.344Z,7.53
2022-11-30T20:37:11.214Z,6.80
2022-11-30T20:39:44.061Z,8.17
2022-11-30T20:42:13.163Z,6.20
2022-11-30T20:44:41.997Z,8.00
2022-11-30T20:47:11.121Z,7.50
2022-11-30T20:49:38.580Z,7.80
2022-11-30T20:52:06.378Z,6.70
2022-11-30T20:54:33.976Z,7.53
2022-11-30T20:57:01.496Z,10.07
2022-11-30T20:59:28.966Z,8.67
2022-11-30T21:01:58.370Z,8.67
2022-11-30T21:04:26.740Z,9.07
2022-11-30T21:06:54.488Z,7.97
2022-11-30T21:09:22.417Z,9.07
2022-11-30T21:11:50.277Z,9.57
2022-11-30T21:14:18.589Z,8.80
2022-11-30T21:16:46.126Z,8.83
2022-11-30T21:19:15.271Z,8.57
2022-11-30T21:21:42.797Z,7.83
2022-11-30T21:24:12.330Z,7.27
2022-11-30T21:26:41.914Z,7.00
2022-11-30T21:29:12.870Z,6.70
2022-11-30T21:31:40.562Z,7.23
2022-11-30T21:34:08.561Z,7.40
2022-11-30T21:36:37.478Z,6.73
2022-11-30T21:39:07.391Z,6.90
2022-11-30T21:41:35.818Z,6.90
2022-11-30T21:44:03.532Z,6.90
2022-11-30T21:46:31.172Z,6.40
2022-11-30T21:48:58.887Z,7.73
2022-11-30T21:51:27.942Z,6.73
2022-11-30T21:53:58.450Z,6.50
2022-11-30T21:56:28.376Z,6.93
2022-11-30T21:58:56.613Z,6.53
2022-11-30T22:01:28.540Z,6.37
2022-11-30T22:03:56.722Z,6.13
2022-11-30T22:06:26.469Z,7.17
2022-11-30T22:08:54.022Z,5.97
2022-11-30T22:11:24.008Z,7.03
2022-11-30T22:13:52.518Z,6.97
2022-11-30T22:16:22.180Z,6.83
2022-11-30T22:18:52.990Z,7.07
2022-11-30T22:21:22.009Z,7.73
2022-11-30T22:23:54.748Z,7.27
2022-11-30T22:26:25.372Z,6.10
2022-11-30T22:28:54.452Z,7.37
2022-11-30T22:31:24.396Z,6.43
2022-11-30T22:33:52.452Z,6.50
2022-11-30T22:36:21.497Z,6.23
2022-11-30T22:38:54.004Z,6.97
2022-11-30T22:41:23.286Z,6.20
2022-11-30T22:43:51.165Z,5.80
2022-11-30T22:46:20.568Z,5.80
2022-11-30T22:48:48.707Z,6.93
2022-11-30T22:51:19.106Z,6.30
2022-11-30T22:53:48.159Z,7.27
2022-11-30T22:56:17.903Z,8.90
2022-11-30T22:58:48.282Z,6.47
2022-11-30T23:01:18.077Z,7.23
2022-11-30T23:03:46.951Z,7.13
2022-11-30T23:06:15.627Z,6.47
2022-11-30T23:08:44.087Z,6.30
2022-11-30T23:11:14.305Z,7.83
2022-11-30T23:13:43.485Z,6.53
2022-11-30T23:16:14.074Z,6.47
2022-11-30T23:18:43.558Z,7.00
2022-11-30T23:21:13.854Z,7.90
2022-11-30T23:23:41.641Z,8.23
2022-11-30T23:26:10.641Z,7.03
2022-11-30T23:28:40.863Z,6.80
2022-11-30T23:31:10.036Z,6.47
2022-11-30T23:33:39.732Z,7.10
2022-11-30T23:36:08.348Z,6.50
2022-11-30T23:38:36.194Z,7.23
2022-11-30T23:41:05.101Z,7.03
2022-11-30T23:43:32.963Z,7.70
2022-11-30T23:46:00.600Z,8.37
2022-11-30T23:48:28.447Z,7.70
2022-11-30T23:50:57.347Z,8.27
2022-11-30T23:53:25.050Z,8.13
2022-11-30T23:55:53.260Z,9.83
2022-11-30T23:58:21.721Z,11.00
